^^
Grace C. Lehan Memorial Weather Station Historical Data
Daily Summary for January 10, 2022 Units:  Metric    English   Both
Daily Weekly Monthly Yearly
  High: Low: Average:
Temperature: 3.3 °C -7.6 °C -1.7 °C
Dew Point: 1.8 °C -12.8 °C -9.2 °C
Humidity: 89.7% 44.1% 57%
Wind Speed: 29km/h 0km/h 6.9km/h
Wind Gust: 45.1km/h - -
Wind- - WNW
Pressure: 1019.2 hPa 1012.1 hPa -
Precipitation: 0 mm    
 
 
Tabular Data for January 10, 2022
Time Temperature Dew Point Pressure Wind Wind Speed Wind Gust Humidity Rainfall Rate (Hourly) solar
00:04 3.3 °C 1.8 °C 1012.1 hPa NW 7.2 km/h 25.7 km/h 89.7% 0 mm 0 W/m2
00:09 3.3 °C 1.6 °C 1012.1 hPa NW 10.8 km/h 25.7 km/h 88.7% 0 mm 0 W/m2
00:14 3.2 °C 1.4 °C 1012.1 hPa WNW 7.4 km/h 25.7 km/h 87.7% 0 mm 0 W/m2
00:19 3.2 °C 1.2 °C 1012.1 hPa NW 9.3 km/h 25.7 km/h 86.5% 0 mm 0 W/m2
00:24 3.2 °C 1 °C 1012.1 hPa WNW 14.5 km/h 29 km/h 85.6% 0 mm 0 W/m2
00:29 3.2 °C 0.9 °C 1012.1 hPa NW 9.3 km/h 29 km/h 85% 0 mm 0 W/m2
00:34 3.2 °C 0.8 °C 1012.1 hPa NW 11.3 km/h 29 km/h 84.1% 0 mm 0 W/m2
00:39 3.2 °C 0.7 °C 1012.4 hPa NW 9.2 km/h 25.7 km/h 83.5% 0 mm 0 W/m2
00:44 3.2 °C 0.6 °C 1012.4 hPa WNW 8.9 km/h 25.7 km/h 83% 0 mm 0 W/m2
00:49 3.1 °C 0.4 °C 1012.4 hPa WNW 8.2 km/h 25.7 km/h 82.2% 0 mm 0 W/m2
00:54 3.1 °C 0.2 °C 1012.4 hPa NW 10 km/h 29 km/h 81.4% 0 mm 0 W/m2
00:59 3.1 °C -0.1 °C 1012.4 hPa NW 13.7 km/h 30.6 km/h 79.5% 0 mm 0 W/m2
01:04 3.1 °C -0.2 °C 1012.4 hPa WNW 11.9 km/h 30.6 km/h 79% 0 mm 0 W/m2
01:09 3 °C -0.4 °C 1012.4 hPa NW 10.8 km/h 30.6 km/h 78% 0 mm 0 W/m2
01:14 3 °C -0.6 °C 1012.4 hPa WNW 11.4 km/h 30.6 km/h 77.2% 0 mm 0 W/m2
01:19 2.9 °C -0.9 °C 1012.4 hPa NW 9.5 km/h 30.6 km/h 75.8% 0 mm 0 W/m2
01:24 2.9 °C -1.1 °C 1012.4 hPa WNW 9 km/h 30.6 km/h 75% 0 mm 0 W/m2
01:29 2.9 °C -1.3 °C 1012.4 hPa NW 16.7 km/h 32.2 km/h 73.7% 0 mm 0 W/m2
01:34 2.8 °C -1.7 °C 1012.4 hPa NW 13.8 km/h 32.2 km/h 71.9% 0 mm 0 W/m2
01:39 2.8 °C -1.9 °C 1012.4 hPa NW 11.4 km/h 27.4 km/h 70.8% 0 mm 0 W/m2
01:44 2.8 °C -2.3 °C 1012.8 hPa WNW 10.9 km/h 29 km/h 69.1% 0 mm 0 W/m2
01:49 2.7 °C -2.4 °C 1012.8 hPa NW 10.5 km/h 29 km/h 69% 0 mm 0 W/m2
01:54 2.7 °C -2.7 °C 1012.8 hPa NW 11.4 km/h 29 km/h 68% 0 mm 0 W/m2
01:59 2.7 °C -2.8 °C 1013.1 hPa WNW 10.6 km/h 29 km/h 67% 0 mm 0 W/m2
02:04 2.7 °C -2.9 °C 1013.1 hPa NW 1.6 km/h 29 km/h 66.8% 0 mm 0 W/m2
02:09 2.6 °C -2.6 °C 1013.1 hPa WNW 4.5 km/h 17.7 km/h 68.6% 0 mm 0 W/m2
02:14 2.5 °C -2.9 °C 1013.1 hPa NW 8 km/h 24.1 km/h 67.2% 0 mm 0 W/m2
02:19 2.4 °C -3.2 °C 1013.1 hPa NW 7.6 km/h 24.1 km/h 66% 0 mm 0 W/m2
02:24 2.4 °C -3.3 °C 1013.4 hPa NW 4.3 km/h 24.1 km/h 66% 0 mm 0 W/m2
02:29 2.4 °C -3.1 °C 1013.4 hPa NW 11.6 km/h 24.1 km/h 66.8% 0 mm 0 W/m2
02:34 2.4 °C -3.3 °C 1013.4 hPa NW 12.6 km/h 24.1 km/h 65.8% 0 mm 0 W/m2
02:39 2.3 °C -3.8 °C 1013.4 hPa NW 12.4 km/h 25.7 km/h 64.2% 0 mm 0 W/m2
02:44 2.2 °C -3.9 °C 1013.8 hPa NW 11.4 km/h 30.6 km/h 63.9% 0 mm 0 W/m2
02:49 2.1 °C -4.1 °C 1013.8 hPa NW 7.9 km/h 30.6 km/h 63.3% 0 mm 0 W/m2
02:54 2 °C -4.1 °C 1013.8 hPa WNW 7.9 km/h 30.6 km/h 64% 0 mm 0 W/m2
02:59 1.8 °C -4.6 °C 1013.8 hPa NW 14.2 km/h 30.6 km/h 62.5% 0 mm 0 W/m2
03:04 1.7 °C -4.8 °C 1013.8 hPa NW 15.3 km/h 38.6 km/h 62% 0 mm 0 W/m2
03:09 1.6 °C -5.1 °C 1013.8 hPa NW 14.6 km/h 38.6 km/h 60.9% 0 mm 0 W/m2
03:14 1.5 °C -5.4 °C 1013.8 hPa NW 12.9 km/h 38.6 km/h 60% 0 mm 0 W/m2
03:19 1.4 °C -5.3 °C 1014.1 hPa NW 11.7 km/h 38.6 km/h 60.8% 0 mm 0 W/m2
03:24 1.4 °C -5.2 °C 1014.1 hPa NW 6 km/h 38.6 km/h 61.7% 0 mm 0 W/m2
03:29 1.3 °C -5.1 °C 1014.1 hPa NW 7.4 km/h 38.6 km/h 62.5% 0 mm 0 W/m2
03:34 1.2 °C -4.9 °C 1014.1 hPa NW 6.8 km/h 38.6 km/h 63.3% 0 mm 0 W/m2
03:39 1.2 °C -5.1 °C 1014.1 hPa NW 11.9 km/h 32.2 km/h 63.2% 0 mm 0 W/m2
03:44 1.1 °C -4.9 °C 1014.1 hPa NW 6.8 km/h 32.2 km/h 64.5% 0 mm 0 W/m2
03:49 0.9 °C -4.7 °C 1014.1 hPa NW 11.3 km/h 32.2 km/h 65.9% 0 mm 0 W/m2
03:54 0.8 °C -4.8 °C 1014.1 hPa NW 14.5 km/h 32.2 km/h 66.4% 0 mm 0 W/m2
03:59 0.6 °C -4.9 °C 1014.4 hPa NW 14.8 km/h 32.2 km/h 66.3% 0 mm 0 W/m2
04:04 0.5 °C -5.1 °C 1014.4 hPa NW 15 km/h 32.2 km/h 66% 0 mm 0 W/m2
04:09 0.4 °C -5.2 °C 1014.8 hPa NW 17.7 km/h 45.1 km/h 66.2% 0 mm 0 W/m2
04:14 0.2 °C -5.2 °C 1014.8 hPa NW 19.2 km/h 45.1 km/h 66.7% 0 mm 0 W/m2
04:19 0.1 °C -5.6 °C 1014.8 hPa NW 15.3 km/h 45.1 km/h 65.4% 0 mm 0 W/m2
04:24 0 °C -5.7 °C 1014.8 hPa NW 14.8 km/h 45.1 km/h 65.8% 0 mm 0 W/m2
04:29 -0.1 °C -6.4 °C 1014.8 hPa NW 22.4 km/h 45.1 km/h 62.4% 0 mm 0 W/m2
04:34 -0.2 °C -6.9 °C 1014.8 hPa NW 10.5 km/h 45.1 km/h 60.2% 0 mm 0 W/m2
04:39 -0.2 °C -6.9 °C 1015.1 hPa NW 11.6 km/h 27.4 km/h 60.8% 0 mm 0 W/m2
04:44 -0.3 °C -7.2 °C 1015.1 hPa NW 12.1 km/h 27.4 km/h 60% 0 mm 0 W/m2
04:49 -0.5 °C -7.7 °C 1015.1 hPa NW 15.9 km/h 37 km/h 58.2% 0 mm 0 W/m2
04:54 -0.6 °C -8.2 °C 1015.1 hPa NW 18.2 km/h 37 km/h 56% 0 mm 0 W/m2
04:59 -0.7 °C -8.6 °C 1015.1 hPa NW 16.3 km/h 37 km/h 55% 0 mm 0 W/m2
05:04 -0.7 °C -8.8 °C 1015.1 hPa NW 14.6 km/h 37 km/h 54.5% 0 mm 0 W/m2
05:09 -0.8 °C -9 °C 1015.5 hPa NW 17.1 km/h 43.5 km/h 53.8% 0 mm 0 W/m2
05:14 -0.9 °C -9.3 °C 1015.5 hPa NW 16.9 km/h 43.5 km/h 53% 0 mm 0 W/m2
05:19 -0.9 °C -9.3 °C 1015.8 hPa NW 11.7 km/h 43.5 km/h 53% 0 mm 0 W/m2
05:24 -1 °C -9.2 °C 1015.8 hPa WNW 14.8 km/h 43.5 km/h 53.7% 0 mm 0 W/m2
05:29 -1.1 °C -9.3 °C 1015.8 hPa WNW 10.5 km/h 43.5 km/h 53.3% 0 mm 0 W/m2
05:34 -1.1 °C -9.3 °C 1016.1 hPa NW 13 km/h 43.5 km/h 53.4% 0 mm 0 W/m2
05:39 -1.2 °C -9.5 °C 1016.1 hPa NW 18.2 km/h 37 km/h 53% 0 mm 0 W/m2
05:44 -1.2 °C -9.6 °C 1016.1 hPa NW 17.4 km/h 37 km/h 53% 0 mm 0 W/m2
05:49 -1.3 °C -9.6 °C 1016.1 hPa WNW 14.5 km/h 37 km/h 53% 0 mm 0 W/m2
05:54 -1.3 °C -9.6 °C 1016.1 hPa WNW 16.4 km/h 37 km/h 53.3% 0 mm 0 W/m2
05:59 -1.3 °C -9.6 °C 1016.1 hPa WNW 7.6 km/h 37 km/h 53.6% 0 mm 0 W/m2
06:04 -1.4 °C -9.5 °C 1016.1 hPa NW 12.1 km/h 37 km/h 54% 0 mm 0 W/m2
06:09 -1.5 °C -9.6 °C 1016.1 hPa NW 12.7 km/h 25.7 km/h 54% 0 mm 0 W/m2
06:14 -1.6 °C -9.5 °C 1016.5 hPa NW 13.2 km/h 29 km/h 54.7% 0 mm 0 W/m2
06:19 -1.6 °C -9.6 °C 1016.5 hPa NW 6.8 km/h 29 km/h 54.4% 0 mm 0 W/m2
06:24 -1.7 °C -9.6 °C 1016.5 hPa WNW 12.7 km/h 29 km/h 54.8% 0 mm 0 W/m2
06:29 -1.7 °C -9.7 °C 1016.5 hPa WNW 12.6 km/h 29 km/h 54.5% 0 mm 0 W/m2
06:34 -1.8 °C -9.7 °C 1016.5 hPa NW 10.3 km/h 29 km/h 55% 0 mm 0 W/m2
06:39 -1.9 °C -9.7 °C 1016.8 hPa NW 9.3 km/h 24.1 km/h 55% 0 mm 0 W/m2
06:44 -1.9 °C -9.8 °C 1016.8 hPa NW 9.3 km/h 24.1 km/h 55% 0 mm 0 W/m2
06:49 -2 °C -9.8 °C 1016.8 hPa NW 8.4 km/h 24.1 km/h 55% 0 mm 0 W/m2
06:54 -2.1 °C -9.9 °C 1016.8 hPa WNW 11.9 km/h 24.1 km/h 55% 0 mm 0 W/m2
06:59 -2.1 °C -9.8 °C 1016.8 hPa NW 7.6 km/h 24.1 km/h 55.5% 0 mm 0 W/m2
07:04 -2.2 °C -9.8 °C 1016.8 hPa WNW 10.9 km/h 30.6 km/h 56% 0 mm 0 W/m2
07:09 -2.2 °C -9.8 °C 1016.8 hPa WNW 11.9 km/h 30.6 km/h 56% 0 mm 0 W/m2
07:14 -2.3 °C -9.8 °C 1016.8 hPa NW 8.5 km/h 30.6 km/h 56% 0 mm 0 W/m2
07:19 -2.3 °C -9.9 °C 1016.8 hPa NW 9 km/h 30.6 km/h 56% 0 mm 0 W/m2
07:24 -2.4 °C -9.9 °C 1016.8 hPa NW 13.4 km/h 32.2 km/h 56.3% 0 mm 0 W/m2
07:29 -2.4 °C -9.9 °C 1016.8 hPa WNW 8.5 km/h 32.2 km/h 56.3% 0 mm 7 W/m2
07:34 -2.4 °C -9.8 °C 1017.2 hPa WNW 8.4 km/h 32.2 km/h 57% 0 mm 12 W/m2
07:39 -2.4 °C -9.8 °C 1017.2 hPa WNW 11.9 km/h 22.5 km/h 57% 0 mm 12 W/m2
07:44 -2.4 °C -9.8 °C 1017.5 hPa WNW 8 km/h 22.5 km/h 57% 0 mm 16 W/m2
07:49 -2.5 °C -9.7 °C 1017.5 hPa NW 8.2 km/h 22.5 km/h 57.4% 0 mm 32 W/m2
07:54 -2.5 °C -9.6 °C 1017.5 hPa WNW 5.8 km/h 22.5 km/h 58% 0 mm 56 W/m2
07:59 -2.4 °C -9.6 °C 1017.5 hPa WNW 3.2 km/h 22.5 km/h 57.8% 0 mm 56 W/m2
08:00 -2.3 °C -9.7 °C 1017.5 hPa Calm   22.5 km/h 57% 0 mm 21 W/m2
08:09 -2.2 °C -9.3 °C 1017.8 hPa West 3.2 km/h 16.1 km/h 58% 0 mm 111 W/m2
08:14 -1.8 °C -9.2 °C 1017.8 hPa WNW 10.9 km/h 29 km/h 57.2% 0 mm 118 W/m2
08:19 -1.7 °C -9.3 °C 1017.8 hPa WNW 12.4 km/h 29 km/h 55.7% 0 mm 148 W/m2
08:24 -1.5 °C -9.1 °C 1017.5 hPa NW 9 km/h 29 km/h 56% 0 mm 142 W/m2
08:29 -1.4 °C -9.1 °C 1017.8 hPa WNW 10.6 km/h 29 km/h 55.8% 0 mm 181 W/m2
08:34 -1.3 °C -9.1 °C 1017.8 hPa WNW 14.6 km/h 30.6 km/h 55.5% 0 mm 220 W/m2
08:39 -1.2 °C -9.2 °C 1017.8 hPa WNW 21.1 km/h 32.2 km/h 54.5% 0 mm 221 W/m2
08:44 -1.3 °C -9.3 °C 1018.2 hPa WNW 18.2 km/h 32.2 km/h 54.4% 0 mm 220 W/m2
08:49 -1.4 °C -9.3 °C 1018.2 hPa NW 12.7 km/h 32.2 km/h 55% 0 mm 220 W/m2
08:54 -1.3 °C -9.2 °C 1018.2 hPa NW 6.3 km/h 32.2 km/h 55% 0 mm 248 W/m2
08:59 -1.2 °C -8.9 °C 1018.2 hPa WNW 5.3 km/h 32.2 km/h 55.8% 0 mm 244 W/m2
09:04 -1 °C -8.8 °C 1018.5 hPa WNW 13.2 km/h 32.2 km/h 55.3% 0 mm 260 W/m2
09:09 -1 °C -9.1 °C 1018.5 hPa WNW 17.9 km/h 32.2 km/h 54% 0 mm 243 W/m2
09:14 -1.1 °C -9.3 °C 1018.5 hPa NW 14.5 km/h 35.4 km/h 53.7% 0 mm 190 W/m2
09:19 -1.3 °C -9.4 °C 1018.5 hPa NW 11.9 km/h 35.4 km/h 54% 0 mm 162 W/m2
09:24 -1.4 °C -9.3 °C 1018.5 hPa WNW 10 km/h 35.4 km/h 54.6% 0 mm 195 W/m2
09:29 -1.3 °C -9.2 °C 1018.5 hPa WNW 9.3 km/h 35.4 km/h 55% 0 mm 206 W/m2
09:34 -1.3 °C -9.1 °C 1018.5 hPa WNW 3.4 km/h 35.4 km/h 55.4% 0 mm 243 W/m2
09:39 -1.2 °C -9.1 °C 1018.5 hPa WNW 14.2 km/h 25.7 km/h 55% 0 mm 272 W/m2
09:44 -1.2 °C -9.6 °C 1018.8 hPa NW 10.1 km/h 27.4 km/h 52.9% 0 mm 172 W/m2
09:49 -1.2 °C -9.7 °C 1018.8 hPa WNW 11.3 km/h 27.4 km/h 52.7% 0 mm 156 W/m2
09:54 -1.2 °C -9.7 °C 1018.8 hPa WNW 9.8 km/h 27.4 km/h 52.7% 0 mm 234 W/m2
09:59 -1.2 °C -9.4 °C 1018.5 hPa NW 7.2 km/h 27.4 km/h 53.4% 0 mm 186 W/m2
10:04 -1.2 °C -9.4 °C 1018.8 hPa NW 9.7 km/h 27.4 km/h 53.6% 0 mm 186 W/m2
10:09 -1.2 °C -9.6 °C 1018.5 hPa WNW 15.4 km/h 32.2 km/h 52.8% 0 mm 137 W/m2
10:14 -1.3 °C -9.8 °C 1018.8 hPa WNW 11.1 km/h 32.2 km/h 52.2% 0 mm 221 W/m2
10:19 -1.3 °C -9.6 °C 1018.5 hPa WNW 11.3 km/h 32.2 km/h 53% 0 mm 225 W/m2
10:24 -1.2 °C -9.6 °C 1018.8 hPa WNW 13.2 km/h 32.2 km/h 52.9% 0 mm 339 W/m2
10:29 -1.1 °C -9.4 °C 1018.8 hPa WNW 7.7 km/h 32.2 km/h 53.1% 0 mm 471 W/m2
10:34 -0.7 °C -9.2 °C 1018.5 hPa WNW 9.5 km/h 32.2 km/h 52.8% 0 mm 485 W/m2
10:39 -0.5 °C -9.1 °C 1018.5 hPa WNW 4.8 km/h 24.1 km/h 52% 0 mm 471 W/m2
10:44 -0.3 °C -8.7 °C 1018.5 hPa NW 5 km/h 24.1 km/h 53% 0 mm 420 W/m2
10:49 -0.2 °C -8.3 °C 1018.5 hPa NW 5.8 km/h 24.1 km/h 54.2% 0 mm 248 W/m2
10:54 -0.1 °C -8.2 °C 1018.5 hPa WNW 7.1 km/h 25.7 km/h 54.2% 0 mm 244 W/m2
10:59 -0.1 °C -8.6 °C 1018.5 hPa WNW 9.8 km/h 25.7 km/h 52.5% 0 mm 404 W/m2
11:04 -0.1 °C -8.6 °C 1018.5 hPa NW 10.6 km/h 25.7 km/h 52.7% 0 mm 399 W/m2
11:09 -0.1 °C -8.7 °C 1018.5 hPa NW 5.6 km/h 22.5 km/h 52.4% 0 mm 257 W/m2
11:14 0 °C -8.4 °C 1018.5 hPa NW 0.5 km/h 22.5 km/h 53.4% 0 mm 204 W/m2
11:19 0.2 °C -8.3 °C 1018.5 hPa WNW 8.2 km/h 22.5 km/h 52.8% 0 mm 288 W/m2
11:24 0.1 °C -8.6 °C 1018.2 hPa WNW 4.8 km/h 22.5 km/h 52% 0 mm 134 W/m2
11:29 0.1 °C -8.7 °C 1018.2 hPa NW 7.4 km/h 22.5 km/h 51.6% 0 mm 141 W/m2
11:34 -0.1 °C -9.1 °C 1018.2 hPa WNW 11.3 km/h 25.7 km/h 50.5% 0 mm 206 W/m2
11:39 -0.3 °C -9.7 °C 1018.2 hPa NW 10.1 km/h 25.7 km/h 49.3% 0 mm 327 W/m2
11:44 -0.5 °C -9.8 °C 1017.8 hPa WNW 8.5 km/h 25.7 km/h 49.1% 0 mm 327 W/m2
11:49 -0.6 °C -10 °C 1017.8 hPa WNW 15.8 km/h 27.4 km/h 48.8% 0 mm 302 W/m2
11:54 -0.6 °C -10.2 °C 1017.5 hPa WNW 12.4 km/h 27.4 km/h 48.3% 0 mm 473 W/m2
11:59 -0.7 °C -10.3 °C 1017.8 hPa WNW 12.4 km/h 27.4 km/h 48.2% 0 mm 601 W/m2
12:00 -0.8 °C -10.2 °C 1017.5 hPa WNW 29 km/h 29 km/h 49% 0 mm 601 W/m2
12:09 -1 °C -10.4 °C 1017.5 hPa WNW 8.2 km/h 22.5 km/h 48.5% 0 mm 417 W/m2
12:14 -0.9 °C -10.4 °C 1017.8 hPa WNW 7.4 km/h 22.5 km/h 48.5% 0 mm 174 W/m2
12:19 -0.7 °C -9.9 °C 1017.5 hPa NNW 8 km/h 22.5 km/h 49.5% 0 mm 580 W/m2
12:24 -0.3 °C -9.7 °C 1017.5 hPa WNW 6.1 km/h 22.5 km/h 48.9% 0 mm 510 W/m2
12:29 0 °C -10 °C 1017.5 hPa WNW 11.6 km/h 27.4 km/h 47% 0 mm 330 W/m2
12:34 -0.2 °C -10.6 °C 1017.5 hPa WNW 10.8 km/h 27.4 km/h 45.3% 0 mm 120 W/m2
12:39 -0.5 °C -10.6 °C 1017.2 hPa WNW 10.9 km/h 25.7 km/h 46.3% 0 mm 141 W/m2
12:44 -0.6 °C -10.5 °C 1017.2 hPa WNW 3.9 km/h 25.7 km/h 47.2% 0 mm 188 W/m2
12:49 -0.6 °C -10.7 °C 1017.2 hPa WNW 8.4 km/h 25.7 km/h 46.5% 0 mm 246 W/m2
12:54 -0.5 °C -10.4 °C 1017.2 hPa NW 7.7 km/h 25.7 km/h 47.1% 0 mm 281 W/m2
12:59 -0.4 °C -10.3 °C 1017.2 hPa NW 5.5 km/h 25.7 km/h 47% 0 mm 271 W/m2
13:04 -0.4 °C -10.4 °C 1016.8 hPa WNW 11.1 km/h 25.7 km/h 46.6% 0 mm 320 W/m2
13:09 -0.4 °C -10.7 °C 1017.2 hPa West 8.5 km/h 24.1 km/h 45.8% 0 mm 105 W/m2
13:14 -0.6 °C -10.9 °C 1016.8 hPa WNW 5 km/h 24.1 km/h 45.5% 0 mm 176 W/m2
13:19 -0.8 °C -10.8 °C 1016.5 hPa WNW 7.9 km/h 24.1 km/h 46.5% 0 mm 179 W/m2
13:24 -1 °C -11.1 °C 1016.1 hPa WNW 10.3 km/h 24.1 km/h 46.1% 0 mm 97 W/m2
13:29 -1.1 °C -10.8 °C 1016.1 hPa WNW 4.8 km/h 24.1 km/h 47.5% 0 mm 95 W/m2
13:34 -1.1 °C -10.7 °C 1016.1 hPa WNW 2.9 km/h 24.1 km/h 47.9% 0 mm 148 W/m2
13:39 -0.9 °C -10.6 °C 1016.1 hPa WNW 4.3 km/h 11.3 km/h 48% 0 mm 105 W/m2
13:44 -0.8 °C -10.4 °C 1016.1 hPa NW 5.1 km/h 14.5 km/h 48% 0 mm 84 W/m2
13:49 -0.8 °C -10.6 °C 1016.1 hPa NW 9.7 km/h 22.5 km/h 47.3% 0 mm 116 W/m2
13:54 -0.7 °C -10.5 °C 1015.8 hPa West 4.3 km/h 22.5 km/h 47.3% 0 mm 318 W/m2
13:59 -0.5 °C -10.4 °C 1015.8 hPa WNW 5 km/h 22.5 km/h 47.2% 0 mm 332 W/m2
14:04 -0.3 °C -10.3 °C 1016.1 hPa WNW 6.3 km/h 22.5 km/h 46.6% 0 mm 269 W/m2
14:09 -0.2 °C -10.6 °C 1016.1 hPa WNW 4 km/h 20.9 km/h 45.5% 0 mm 366 W/m2
14:14 0 °C -10.2 °C 1016.1 hPa WNW 1.4 km/h 20.9 km/h 46.2% 0 mm 288 W/m2
14:19 0.3 °C -9.9 °C 1016.1 hPa WSW 3.7 km/h 20.9 km/h 46.3% 0 mm 160 W/m2
14:24 0.3 °C -10.4 °C 1016.1 hPa WNW 8 km/h 20.9 km/h 44.1% 0 mm 213 W/m2
14:29 0.2 °C -10.6 °C 1016.1 hPa WNW 5.3 km/h 20.9 km/h 44.3% 0 mm 123 W/m2
14:34 0 °C -10.4 °C 1016.1 hPa West 2.1 km/h 20.9 km/h 45.3% 0 mm 97 W/m2
14:39 -0.1 °C -10.3 °C 1016.1 hPa WSW 1.3 km/h 11.3 km/h 46% 0 mm 67 W/m2
14:44 -0.2 °C -10.6 °C 1016.1 hPa WSW 2.4 km/h 11.3 km/h 45.4% 0 mm 84 W/m2
14:49 -0.3 °C -10.7 °C 1016.1 hPa Calm   11.3 km/h 45.1% 0 mm 84 W/m2
14:54 -0.4 °C -10.6 °C 1016.1 hPa West 1.4 km/h 11.3 km/h 46.2% 0 mm 77 W/m2
14:59 -0.5 °C -10.8 °C 1016.1 hPa West 0.5 km/h 11.3 km/h 45.7% 0 mm 84 W/m2
15:04 -0.5 °C -10.8 °C 1016.5 hPa WNW 5 km/h 14.5 km/h 45.4% 0 mm 77 W/m2
15:09 -0.6 °C -10.9 °C 1016.5 hPa West 2.9 km/h 14.5 km/h 45.3% 0 mm 74 W/m2
15:14 -0.6 °C -10.8 °C 1016.5 hPa WNW 2.7 km/h 14.5 km/h 46% 0 mm 77 W/m2
15:19 -0.6 °C -10.7 °C 1016.5 hPa West 6.1 km/h 25.7 km/h 46.3% 0 mm 88 W/m2
15:24 -0.7 °C -10.9 °C 1016.5 hPa WNW 5.3 km/h 25.7 km/h 45.9% 0 mm 91 W/m2
15:29 -0.8 °C -11.2 °C 1016.5 hPa West 4.8 km/h 25.7 km/h 45.1% 0 mm 83 W/m2
15:33 -0.9 °C -11.3 °C 1016.5 hPa WSW 1.4 km/h 25.7 km/h 45% 0 mm 72 W/m2
15:39 -0.9 °C -11.4 °C 1016.5 hPa West 7.1 km/h 19.3 km/h 44.9% 0 mm 47 W/m2
15:44 -1.1 °C -11.4 °C 1016.8 hPa WNW 9.2 km/h 20.9 km/h 45.2% 0 mm 58 W/m2
15:49 -1.1 °C -11.4 °C 1016.8 hPa West 4 km/h 20.9 km/h 45.3% 0 mm 60 W/m2
15:54 -1.1 °C -11.4 °C 1016.8 hPa WSW 2.3 km/h 20.9 km/h 45.4% 0 mm 51 W/m2
15:59 -1.1 °C -11.3 °C 1016.8 hPa WSW 2.9 km/h 20.9 km/h 45.7% 0 mm 40 W/m2
16:00 -1.2 °C -11.3 °C 1016.8 hPa WNW 4.8 km/h 20.9 km/h 46% 0 mm 28 W/m2
16:09 -1.3 °C -11.9 °C 1016.8 hPa West 4.7 km/h 16.1 km/h 44.1% 0 mm 32 W/m2
16:14 -1.3 °C -11.7 °C 1016.8 hPa West 1 km/h 16.1 km/h 45.3% 0 mm 30 W/m2
16:19 -1.4 °C -11.2 °C 1016.8 hPa WSW 2.7 km/h 16.1 km/h 47.3% 0 mm 26 W/m2
16:24 -1.5 °C -10.9 °C 1016.8 hPa WSW 3.2 km/h 16.1 km/h 48.5% 0 mm 18 W/m2
16:29 -1.6 °C -10.9 °C 1017.2 hPa West 1.3 km/h 16.1 km/h 48.9% 0 mm 14 W/m2
16:34 -1.7 °C -10.8 °C 1017.2 hPa West 0.5 km/h 16.1 km/h 49.6% 0 mm 11 W/m2
16:39 -1.8 °C -10.6 °C 1017.2 hPa WSW 1.4 km/h 9.7 km/h 50.8% 0 mm 5 W/m2
16:44 -1.9 °C -10.6 °C 1017.2 hPa SW 2.6 km/h 16.1 km/h 51.1% 0 mm 0 W/m2
16:49 -1.9 °C -10.8 °C 1017.2 hPa SW 5.3 km/h 25.7 km/h 50.9% 0 mm 0 W/m2
16:54 -2.1 °C -10.9 °C 1017.2 hPa WSW 3.4 km/h 25.7 km/h 50.4% 0 mm 0 W/m2
16:59 -2.2 °C -11.2 °C 1017.2 hPa WSW 3.2 km/h 25.7 km/h 50.1% 0 mm 0 W/m2
17:04 -2.2 °C -11.3 °C 1017.5 hPa WSW 5 km/h 25.7 km/h 49.7% 0 mm 0 W/m2
17:09 -2.3 °C -11.4 °C 1017.5 hPa West 3.7 km/h 25.7 km/h 49.7% 0 mm 0 W/m2
17:14 -2.4 °C -11.6 °C 1017.2 hPa WSW 4.2 km/h 25.7 km/h 49.2% 0 mm 0 W/m2
17:19 -2.5 °C -11.8 °C 1017.2 hPa WSW 2.9 km/h 25.7 km/h 49% 0 mm 0 W/m2
17:24 -2.6 °C -11.9 °C 1017.5 hPa WSW 6.9 km/h 25.7 km/h 49% 0 mm 0 W/m2
17:29 -2.7 °C -11.9 °C 1017.8 hPa West 4.5 km/h 25.7 km/h 49% 0 mm 0 W/m2
17:34 -2.8 °C -12.2 °C 1017.8 hPa West 9.7 km/h 25.7 km/h 48.4% 0 mm 0 W/m2
17:39 -2.9 °C -12.5 °C 1017.8 hPa West 4.8 km/h 25.7 km/h 47.5% 0 mm 0 W/m2
17:44 -2.9 °C -12.5 °C 1017.8 hPa West 6 km/h 25.7 km/h 47.8% 0 mm 0 W/m2
17:49 -3 °C -12.6 °C 1017.8 hPa West 6.8 km/h 25.7 km/h 47.7% 0 mm 0 W/m2
17:54 -3.1 °C -12.8 °C 1017.8 hPa West 8.2 km/h 25.7 km/h 47.2% 0 mm 0 W/m2
17:59 -3.2 °C -12.7 °C 1018.2 hPa West 6 km/h 25.7 km/h 47.8% 0 mm 0 W/m2
18:04 -3.3 °C -12.7 °C 1017.8 hPa West 6.9 km/h 25.7 km/h 48% 0 mm 0 W/m2
18:09 -3.3 °C -12.7 °C 1018.2 hPa WSW 2.9 km/h 16.1 km/h 48.2% 0 mm 0 W/m2
18:14 -3.4 °C -12.6 °C 1018.5 hPa WSW 2.9 km/h 16.1 km/h 49% 0 mm 0 W/m2
18:19 -3.4 °C -12.5 °C 1018.5 hPa West 1.8 km/h 16.1 km/h 49.3% 0 mm 0 W/m2
18:24 -3.5 °C -12.6 °C 1018.5 hPa WSW 2.9 km/h 16.1 km/h 49.3% 0 mm 0 W/m2
18:29 -3.6 °C -12.6 °C 1018.5 hPa WSW 1.9 km/h 16.1 km/h 49.7% 0 mm 0 W/m2
18:34 -3.7 °C -12.6 °C 1018.5 hPa West 2.7 km/h 17.7 km/h 50% 0 mm 0 W/m2
18:39 -3.7 °C -12.7 °C 1018.5 hPa West 6.1 km/h 19.3 km/h 50% 0 mm 0 W/m2
18:44 -3.8 °C -12.6 °C 1018.5 hPa West 2.4 km/h 19.3 km/h 50.5% 0 mm 0 W/m2
18:49 -3.8 °C -12.5 °C 1018.5 hPa West 2.4 km/h 19.3 km/h 51% 0 mm 0 W/m2
18:54 -3.9 °C -12.6 °C 1018.5 hPa West 2.4 km/h 19.3 km/h 51% 0 mm 0 W/m2
18:59 -4 °C -12.4 °C 1018.5 hPa West 2.4 km/h 19.3 km/h 52% 0 mm 0 W/m2
19:04 -4.1 °C -12.5 °C 1018.5 hPa West 1.1 km/h 19.3 km/h 51.8% 0 mm 0 W/m2
19:09 -4.1 °C -12.5 °C 1018.5 hPa West 1.4 km/h 11.3 km/h 52% 0 mm 0 W/m2
19:14 -4.2 °C -12.6 °C 1018.5 hPa West 0.8 km/h 11.3 km/h 52% 0 mm 0 W/m2
19:19 -4.3 °C -12.6 °C 1018.5 hPa West 0.2 km/h 11.3 km/h 52% 0 mm 0 W/m2
19:24 -4.3 °C -12.4 °C 1018.5 hPa Calm   11.3 km/h 53% 0 mm 0 W/m2
19:29 -4.4 °C -12.5 °C 1018.5 hPa Calm   11.3 km/h 53% 0 mm 0 W/m2
19:34 -4.4 °C -12.6 °C 1018.5 hPa Calm   11.3 km/h 53.1% 0 mm 0 W/m2
19:39 -4.6 °C -12.5 °C 1018.5 hPa Calm     53.7% 0 mm 0 W/m2
19:43 -4.7 °C -12.8 °C 1018.5 hPa Calm     53% 0 mm 0 W/m2
19:49 -4.8 °C -12.7 °C 1018.5 hPa Calm     54% 0 mm 0 W/m2
19:53 -4.8 °C -12.7 °C 1018.5 hPa Calm     54% 0 mm 0 W/m2
20:04 -5.1 °C -12.7 °C 1018.5 hPa Calm     55% 0 mm 0 W/m2
20:09 -5.2 °C -12.8 °C 1018.5 hPa West 0.2 km/h 3.2 km/h 55.1% 0 mm 0 W/m2
20:14 -5.2 °C -12.6 °C 1018.5 hPa Calm   3.2 km/h 56% 0 mm 0 W/m2
20:19 -5.3 °C -12.6 °C 1018.5 hPa Calm   3.2 km/h 56.4% 0 mm 0 W/m2
20:24 -5.4 °C -12.5 °C 1018.8 hPa Calm   3.2 km/h 57.1% 0 mm 0 W/m2
20:29 -5.4 °C -12.5 °C 1018.8 hPa Calm   3.2 km/h 57.6% 0 mm 0 W/m2
20:34 -5.5 °C -12.4 °C 1018.5 hPa Calm   3.2 km/h 58% 0 mm 0 W/m2
20:39 -5.6 °C -12.5 °C 1018.5 hPa Calm     58.2% 0 mm 0 W/m2
20:44 -5.6 °C -12.3 °C 1018.5 hPa Calm     59% 0 mm 0 W/m2
20:49 -5.7 °C -12.4 °C 1018.5 hPa Calm     59% 0 mm 0 W/m2
20:54 -5.7 °C -12.4 °C 1018.5 hPa Calm     59% 0 mm 0 W/m2
20:59 -5.7 °C -12.4 °C 1018.5 hPa Calm     59% 0 mm 0 W/m2
21:04 -5.7 °C -12.4 °C 1018.5 hPa Calm     59% 0 mm 0 W/m2
21:09 -5.8 °C -12.4 °C 1018.5 hPa Calm     59.5% 0 mm 0 W/m2
21:14 -5.8 °C -12.1 °C 1018.5 hPa Calm     61% 0 mm 0 W/m2
21:19 -5.9 °C -12.2 °C 1018.5 hPa Calm     61% 0 mm 0 W/m2
21:24 -6 °C -12.3 °C 1018.5 hPa Calm     61.1% 0 mm 0 W/m2
21:29 -6.1 °C -12.2 °C 1018.5 hPa Calm     62% 0 mm 0 W/m2
21:34 -6.2 °C -12.1 °C 1018.5 hPa Calm     63.2% 0 mm 0 W/m2
21:39 -6.3 °C -11.9 °C 1018.5 hPa Calm     64% 0 mm 0 W/m2
21:44 -6.3 °C -11.8 °C 1018.5 hPa Calm     65.2% 0 mm 0 W/m2
21:49 -6.4 °C -11.7 °C 1018.5 hPa Calm     66% 0 mm 0 W/m2
21:54 -6.4 °C -11.8 °C 1018.5 hPa Calm     66% 0 mm 0 W/m2
21:59 -6.5 °C -11.7 °C 1018.5 hPa Calm     66.3% 0 mm 0 W/m2
22:04 -6.6 °C -11.7 °C 1018.5 hPa Calm     67% 0 mm 0 W/m2
22:09 -6.6 °C -11.7 °C 1018.2 hPa Calm     67% 0 mm 0 W/m2
22:14 -6.6 °C -11.6 °C 1018.5 hPa Calm     67.4% 0 mm 0 W/m2
22:19 -6.6 °C -11.6 °C 1018.2 hPa Calm     68% 0 mm 0 W/m2
22:24 -6.7 °C -11.4 °C 1018.5 hPa Calm     68.8% 0 mm 0 W/m2
22:29 -6.8 °C -11.5 °C 1018.2 hPa Calm     69% 0 mm 0 W/m2
22:34 -6.8 °C -11.5 °C 1018.2 hPa Calm     69% 0 mm 0 W/m2
22:39 -6.8 °C -11.6 °C 1018.5 hPa Calm     69% 0 mm 0 W/m2
22:44 -6.9 °C -11.6 °C 1018.5 hPa Calm     69.3% 0 mm 0 W/m2
22:49 -7 °C -11.4 °C 1018.5 hPa Calm     70.7% 0 mm 0 W/m2
22:54 -7.1 °C -11.6 °C 1018.5 hPa Calm     70.3% 0 mm 0 W/m2
22:59 -7.1 °C -11.6 °C 1018.5 hPa Calm     70.6% 0 mm 0 W/m2
23:00 -7.2 °C -11.5 °C 1018.5 hPa Calm     71% 0 mm 0 W/m2
23:09 -7.3 °C -11.6 °C 1018.5 hPa Calm     71.1% 0 mm 0 W/m2
23:14 -7.3 °C -11.5 °C 1018.5 hPa Calm     72% 0 mm 0 W/m2
23:19 -7.4 °C -11.6 °C 1018.8 hPa Calm     72% 0 mm 0 W/m2
23:24 -7.5 °C -11.6 °C 1018.8 hPa Calm     72.7% 0 mm 0 W/m2
23:29 -7.6 °C -11.5 °C 1018.8 hPa Calm     73.2% 0 mm 0 W/m2
23:34 -7.6 °C -11.4 °C 1018.8 hPa Calm   1.6 km/h 73.8% 0 mm 0 W/m2
23:39 -7.6 °C -11.4 °C 1018.8 hPa West 0.5 km/h 6.4 km/h 74% 0 mm 0 W/m2
23:44 -7.6 °C -11.5 °C 1019.2 hPa Calm   6.4 km/h 73.3% 0 mm 0 W/m2
23:49 -7.6 °C -11.4 °C 1019.2 hPa West 0.3 km/h 6.4 km/h 73.9% 0 mm 0 W/m2
23:54 -7.6 °C -11.4 °C 1019.2 hPa West 0.5 km/h 6.4 km/h 74% 0 mm 0 W/m2
23:59 -7.5 °C -11.3 °C 1019.2 hPa West 1.6 km/h 8 km/h 74% 0 mm 0 W/m2
Hartford County Weather
Compliments of Weather Underground - 2 mb